sensor_id;sensor_type;location;lat;lon;timestamp;P1;durP1;ratioP1;P2;durP2;ratioP2
8940;SDS011;4505;43.406;23.226;2023-04-01T00:00:35;7.73;;;5.03;;
8940;SDS011;4505;43.406;23.226;2023-04-01T00:03:02;7.23;;;4.97;;
8940;SDS011;4505;43.406;23.226;2023-04-01T00:05:29;7.57;;;4.87;;
8940;SDS011;4505;43.406;23.226;2023-04-01T00:07:55;7.63;;;5.00;;
8940;SDS011;4505;43.406;23.226;2023-04-01T00:10:22;13.70;;;5.60;;
8940;SDS011;4505;43.406;23.226;2023-04-01T00:12:48;6.90;;;5.53;;
8940;SDS011;4505;43.406;23.226;2023-04-01T00:15:16;9.10;;;5.20;;
8940;SDS011;4505;43.406;23.226;2023-04-01T00:17:43;9.20;;;5.17;;
8940;SDS011;4505;43.406;23.226;2023-04-01T00:20:10;8.80;;;5.47;;
8940;SDS011;4505;43.406;23.226;2023-04-01T00:22:37;6.83;;;4.80;;
8940;SDS011;4505;43.406;23.226;2023-04-01T00:25:04;12.40;;;6.17;;
8940;SDS011;4505;43.406;23.226;2023-04-01T00:27:31;9.10;;;5.90;;
8940;SDS011;4505;43.406;23.226;2023-04-01T00:29:57;9.23;;;6.37;;
8940;SDS011;4505;43.406;23.226;2023-04-01T00:32:25;9.00;;;5.33;;
8940;SDS011;4505;43.406;23.226;2023-04-01T00:34:52;7.33;;;4.53;;
8940;SDS011;4505;43.406;23.226;2023-04-01T00:37:19;11.27;;;5.70;;
8940;SDS011;4505;43.406;23.226;2023-04-01T00:39:46;9.67;;;6.60;;
8940;SDS011;4505;43.406;23.226;2023-04-01T00:42:12;9.77;;;6.07;;
8940;SDS011;4505;43.406;23.226;2023-04-01T00:44:39;9.87;;;6.10;;
8940;SDS011;4505;43.406;23.226;2023-04-01T00:47:06;9.33;;;6.03;;
8940;SDS011;4505;43.406;23.226;2023-04-01T00:49:36;6.77;;;5.20;;
8940;SDS011;4505;43.406;23.226;2023-04-01T00:52:04;9.50;;;6.17;;
8940;SDS011;4505;43.406;23.226;2023-04-01T00:54:32;8.50;;;5.60;;
8940;SDS011;4505;43.406;23.226;2023-04-01T00:57:01;11.07;;;5.63;;
8940;SDS011;4505;43.406;23.226;2023-04-01T00:59:29;10.90;;;6.27;;
8940;SDS011;4505;43.406;23.226;2023-04-01T01:01:56;9.47;;;5.77;;
8940;SDS011;4505;43.406;23.226;2023-04-01T01:04:23;12.57;;;6.23;;
8940;SDS011;4505;43.406;23.226;2023-04-01T01:06:52;9.83;;;5.80;;
8940;SDS011;4505;43.406;23.226;2023-04-01T01:09:25;10.83;;;5.60;;
8940;SDS011;4505;43.406;23.226;2023-04-01T01:11:55;9.53;;;6.70;;
8940;SDS011;4505;43.406;23.226;2023-04-01T01:14:28;12.10;;;7.57;;
8940;SDS011;4505;43.406;23.226;2023-04-01T01:17:02;11.90;;;6.60;;
8940;SDS011;4505;43.406;23.226;2023-04-01T01:19:39;9.90;;;6.37;;
8940;SDS011;4505;43.406;23.226;2023-04-01T01:22:24;10.97;;;5.70;;
8940;SDS011;4505;43.406;23.226;2023-04-01T01:24:57;7.70;;;4.60;;
8940;SDS011;4505;43.406;23.226;2023-04-01T01:27:31;8.47;;;3.50;;
8940;SDS011;4505;43.406;23.226;2023-04-01T01:30:06;7.57;;;5.63;;
8940;SDS011;4505;43.406;23.226;2023-04-01T01:35:24;10.73;;;6.63;;
8940;SDS011;4505;43.406;23.226;2023-04-01T01:37:53;8.00;;;4.10;;
8940;SDS011;4505;43.406;23.226;2023-04-01T01:40:21;6.13;;;3.20;;
8940;SDS011;4505;43.406;23.226;2023-04-01T01:42:49;8.53;;;3.37;;
8940;SDS011;4505;43.406;23.226;2023-04-01T01:45:18;5.10;;;3.13;;
8940;SDS011;4505;43.406;23.226;2023-04-01T01:47:45;8.10;;;2.70;;
8940;SDS011;4505;43.406;23.226;2023-04-01T01:50:12;6.57;;;2.67;;
8940;SDS011;4505;43.406;23.226;2023-04-01T01:52:41;5.40;;;2.67;;
8940;SDS011;4505;43.406;23.226;2023-04-01T01:55:22;7.67;;;2.90;;
8940;SDS011;4505;43.406;23.226;2023-04-01T01:57:49;6.57;;;3.03;;
8940;SDS011;4505;43.406;23.226;2023-04-01T02:00:17;6.23;;;2.73;;
8940;SDS011;4505;43.406;23.226;2023-04-01T02:02:45;7.80;;;2.93;;
8940;SDS011;4505;43.406;23.226;2023-04-01T02:05:14;7.80;;;3.17;;
8940;SDS011;4505;43.406;23.226;2023-04-01T02:07:44;7.37;;;2.80;;
8940;SDS011;4505;43.406;23.226;2023-04-01T02:10:13;5.73;;;2.57;;
8940;SDS011;4505;43.406;23.226;2023-04-01T02:12:40;6.03;;;2.40;;
8940;SDS011;4505;43.406;23.226;2023-04-01T02:15:09;6.83;;;2.83;;
8940;SDS011;4505;43.406;23.226;2023-04-01T02:17:37;6.73;;;3.00;;
8940;SDS011;4505;43.406;23.226;2023-04-01T02:20:06;6.33;;;2.40;;
8940;SDS011;4505;43.406;23.226;2023-04-01T02:22:34;4.10;;;2.70;;
8940;SDS011;4505;43.406;23.226;2023-04-01T02:25:05;7.40;;;2.97;;
8940;SDS011;4505;43.406;23.226;2023-04-01T02:27:32;6.40;;;3.13;;
8940;SDS011;4505;43.406;23.226;2023-04-01T02:29:59;8.87;;;3.60;;
8940;SDS011;4505;43.406;23.226;2023-04-01T02:32:25;5.60;;;2.60;;
8940;SDS011;4505;43.406;23.226;2023-04-01T02:34:53;7.97;;;3.13;;
8940;SDS011;4505;43.406;23.226;2023-04-01T02:37:20;6.27;;;2.87;;
8940;SDS011;4505;43.406;23.226;2023-04-01T02:39:47;8.23;;;2.70;;
8940;SDS011;4505;43.406;23.226;2023-04-01T02:42:14;6.63;;;2.93;;
8940;SDS011;4505;43.406;23.226;2023-04-01T02:44:41;5.00;;;2.23;;
8940;SDS011;4505;43.406;23.226;2023-04-01T02:47:07;6.20;;;2.73;;
8940;SDS011;4505;43.406;23.226;2023-04-01T02:49:34;8.07;;;2.70;;
8940;SDS011;4505;43.406;23.226;2023-04-01T02:52:00;7.20;;;2.83;;
8940;SDS011;4505;43.406;23.226;2023-04-01T02:54:27;4.03;;;2.40;;
8940;SDS011;4505;43.406;23.226;2023-04-01T02:56:54;6.90;;;2.80;;
8940;SDS011;4505;43.406;23.226;2023-04-01T02:59:21;7.50;;;2.47;;
8940;SDS011;4505;43.406;23.226;2023-04-01T03:01:48;5.20;;;2.80;;
8940;SDS011;4505;43.406;23.226;2023-04-01T03:04:15;4.87;;;2.50;;
8940;SDS011;4505;43.406;23.226;2023-04-01T03:06:41;5.03;;;2.73;;
8940;SDS011;4505;43.406;23.226;2023-04-01T03:09:08;5.40;;;2.80;;
8940;SDS011;4505;43.406;23.226;2023-04-01T03:11:35;8.80;;;2.80;;
8940;SDS011;4505;43.406;23.226;2023-04-01T03:14:01;5.80;;;2.87;;
8940;SDS011;4505;43.406;23.226;2023-04-01T03:16:29;6.00;;;2.87;;
8940;SDS011;4505;43.406;23.226;2023-04-01T03:18:56;9.10;;;2.57;;
8940;SDS011;4505;43.406;23.226;2023-04-01T03:21:24;4.93;;;2.30;;
8940;SDS011;4505;43.406;23.226;2023-04-01T03:23:51;7.70;;;2.93;;
8940;SDS011;4505;43.406;23.226;2023-04-01T03:26:17;5.93;;;2.50;;
8940;SDS011;4505;43.406;23.226;2023-04-01T03:28:45;6.13;;;2.63;;
8940;SDS011;4505;43.406;23.226;2023-04-01T03:31:11;8.03;;;2.70;;
8940;SDS011;4505;43.406;23.226;2023-04-01T03:33:39;4.40;;;2.63;;
8940;SDS011;4505;43.406;23.226;2023-04-01T03:36:06;5.83;;;3.00;;
8940;SDS011;4505;43.406;23.226;2023-04-01T03:38:33;6.80;;;2.87;;
8940;SDS011;4505;43.406;23.226;2023-04-01T03:40:59;5.70;;;2.53;;
8940;SDS011;4505;43.406;23.226;2023-04-01T03:43:26;3.87;;;2.40;;
8940;SDS011;4505;43.406;23.226;2023-04-01T03:45:53;4.87;;;2.47;;
8940;SDS011;4505;43.406;23.226;2023-04-01T03:48:31;3.90;;;2.23;;
8940;SDS011;4505;43.406;23.226;2023-04-01T03:50:59;3.97;;;2.43;;
8940;SDS011;4505;43.406;23.226;2023-04-01T03:53:29;8.50;;;2.97;;
8940;SDS011;4505;43.406;23.226;2023-04-01T03:55:55;4.97;;;2.93;;
8940;SDS011;4505;43.406;23.226;2023-04-01T03:58:22;8.77;;;2.80;;
8940;SDS011;4505;43.406;23.226;2023-04-01T04:00:48;11.53;;;3.10;;
8940;SDS011;4505;43.406;23.226;2023-04-01T04:03:15;6.57;;;2.50;;
8940;SDS011;4505;43.406;23.226;2023-04-01T04:05:46;6.53;;;2.70;;
8940;SDS011;4505;43.406;23.226;2023-04-01T04:08:14;7.93;;;2.90;;
8940;SDS011;4505;43.406;23.226;2023-04-01T04:10:40;4.73;;;2.70;;
8940;SDS011;4505;43.406;23.226;2023-04-01T04:13:08;5.50;;;2.80;;
8940;SDS011;4505;43.406;23.226;2023-04-01T04:15:35;8.47;;;3.10;;
8940;SDS011;4505;43.406;23.226;2023-04-01T04:18:01;7.73;;;2.77;;
8940;SDS011;4505;43.406;23.226;2023-04-01T04:20:28;4.60;;;2.97;;
8940;SDS011;4505;43.406;23.226;2023-04-01T04:23:02;7.13;;;2.80;;
8940;SDS011;4505;43.406;23.226;2023-04-01T04:25:44;7.83;;;3.17;;
8940;SDS011;4505;43.406;23.226;2023-04-01T04:28:19;7.80;;;3.07;;
8940;SDS011;4505;43.406;23.226;2023-04-01T04:30:48;5.50;;;3.27;;
8940;SDS011;4505;43.406;23.226;2023-04-01T04:33:15;8.53;;;3.30;;
8940;SDS011;4505;43.406;23.226;2023-04-01T04:35:41;6.10;;;3.17;;
8940;SDS011;4505;43.406;23.226;2023-04-01T04:38:16;5.90;;;2.90;;
8940;SDS011;4505;43.406;23.226;2023-04-01T04:40:44;7.23;;;3.23;;
8940;SDS011;4505;43.406;23.226;2023-04-01T04:43:11;5.70;;;2.90;;
8940;SDS011;4505;43.406;23.226;2023-04-01T04:45:38;8.47;;;4.10;;
8940;SDS011;4505;43.406;23.226;2023-04-01T04:48:05;9.93;;;4.10;;
8940;SDS011;4505;43.406;23.226;2023-04-01T04:50:32;11.53;;;3.83;;
8940;SDS011;4505;43.406;23.226;2023-04-01T04:52:59;7.17;;;3.47;;
8940;SDS011;4505;43.406;23.226;2023-04-01T04:55:26;7.70;;;3.83;;
8940;SDS011;4505;43.406;23.226;2023-04-01T04:57:56;6.13;;;3.60;;
8940;SDS011;4505;43.406;23.226;2023-04-01T05:00:23;9.53;;;4.97;;
8940;SDS011;4505;43.406;23.226;2023-04-01T05:02:50;6.07;;;4.43;;
8940;SDS011;4505;43.406;23.226;2023-04-01T05:05:16;6.60;;;3.30;;
8940;SDS011;4505;43.406;23.226;2023-04-01T05:07:43;8.77;;;4.50;;
8940;SDS011;4505;43.406;23.226;2023-04-01T05:10:09;10.07;;;4.07;;
8940;SDS011;4505;43.406;23.226;2023-04-01T05:12:36;7.63;;;4.80;;
8940;SDS011;4505;43.406;23.226;2023-04-01T05:15:05;9.63;;;4.77;;
8940;SDS011;4505;43.406;23.226;2023-04-01T05:17:32;11.57;;;3.90;;
8940;SDS011;4505;43.406;23.226;2023-04-01T05:19:59;12.23;;;6.70;;
8940;SDS011;4505;43.406;23.226;2023-04-01T05:22:25;9.93;;;6.43;;
8940;SDS011;4505;43.406;23.226;2023-04-01T05:24:52;9.80;;;6.00;;
8940;SDS011;4505;43.406;23.226;2023-04-01T05:27:19;10.47;;;5.57;;
8940;SDS011;4505;43.406;23.226;2023-04-01T05:29:45;14.47;;;5.27;;
8940;SDS011;4505;43.406;23.226;2023-04-01T05:32:13;9.17;;;5.20;;
8940;SDS011;4505;43.406;23.226;2023-04-01T05:34:40;10.00;;;5.20;;
8940;SDS011;4505;43.406;23.226;2023-04-01T05:37:07;10.10;;;4.67;;
8940;SDS011;4505;43.406;23.226;2023-04-01T05:39:35;11.67;;;4.90;;
8940;SDS011;4505;43.406;23.226;2023-04-01T05:42:02;8.17;;;5.40;;
8940;SDS011;4505;43.406;23.226;2023-04-01T05:44:29;9.50;;;5.77;;
8940;SDS011;4505;43.406;23.226;2023-04-01T05:46:55;12.23;;;5.77;;
8940;SDS011;4505;43.406;23.226;2023-04-01T05:49:23;7.77;;;4.33;;
8940;SDS011;4505;43.406;23.226;2023-04-01T05:51:50;7.80;;;5.00;;
8940;SDS011;4505;43.406;23.226;2023-04-01T05:54:17;8.50;;;5.30;;
8940;SDS011;4505;43.406;23.226;2023-04-01T05:56:44;7.97;;;4.93;;
8940;SDS011;4505;43.406;23.226;2023-04-01T05:59:11;11.63;;;5.33;;
8940;SDS011;4505;43.406;23.226;2023-04-01T06:01:37;14.67;;;9.00;;
8940;SDS011;4505;43.406;23.226;2023-04-01T06:04:05;9.00;;;5.13;;
8940;SDS011;4505;43.406;23.226;2023-04-01T06:06:34;11.80;;;6.47;;
8940;SDS011;4505;43.406;23.226;2023-04-01T06:09:04;12.90;;;6.20;;
8940;SDS011;4505;43.406;23.226;2023-04-01T06:11:34;16.93;;;9.33;;
8940;SDS011;4505;43.406;23.226;2023-04-01T06:14:11;15.03;;;9.43;;
8940;SDS011;4505;43.406;23.226;2023-04-01T06:16:44;15.53;;;8.60;;
8940;SDS011;4505;43.406;23.226;2023-04-01T06:19:15;13.50;;;8.87;;
8940;SDS011;4505;43.406;23.226;2023-04-01T06:24:46;14.07;;;7.50;;
8940;SDS011;4505;43.406;23.226;2023-04-01T06:27:20;11.97;;;6.90;;
8940;SDS011;4505;43.406;23.226;2023-04-01T06:29:54;14.50;;;9.00;;
8940;SDS011;4505;43.406;23.226;2023-04-01T06:32:37;18.73;;;10.23;;
8940;SDS011;4505;43.406;23.226;2023-04-01T06:38:04;12.97;;;7.47;;
8940;SDS011;4505;43.406;23.226;2023-04-01T06:40:53;10.00;;;6.67;;
8940;SDS011;4505;43.406;23.226;2023-04-01T06:43:24;7.57;;;4.80;;
8940;SDS011;4505;43.406;23.226;2023-04-01T06:45:55;8.97;;;5.90;;
8940;SDS011;4505;43.406;23.226;2023-04-01T06:48:35;12.93;;;8.00;;
8940;SDS011;4505;43.406;23.226;2023-04-01T06:51:08;16.73;;;10.20;;
8940;SDS011;4505;43.406;23.226;2023-04-01T06:53:38;17.30;;;10.23;;
8940;SDS011;4505;43.406;23.226;2023-04-01T06:56:10;14.80;;;8.60;;
8940;SDS011;4505;43.406;23.226;2023-04-01T06:58:39;29.17;;;16.27;;
8940;SDS011;4505;43.406;23.226;2023-04-01T07:01:08;16.67;;;10.30;;
8940;SDS011;4505;43.406;23.226;2023-04-01T07:03:36;11.67;;;6.73;;
8940;SDS011;4505;43.406;23.226;2023-04-01T07:06:05;10.17;;;7.13;;
8940;SDS011;4505;43.406;23.226;2023-04-01T07:08:35;12.47;;;7.87;;
8940;SDS011;4505;43.406;23.226;2023-04-01T07:11:04;13.43;;;8.73;;
8940;SDS011;4505;43.406;23.226;2023-04-01T07:13:32;17.40;;;9.17;;
8940;SDS011;4505;43.406;23.226;2023-04-01T07:16:11;37.47;;;22.33;;
8940;SDS011;4505;43.406;23.226;2023-04-01T07:18:40;43.77;;;23.47;;
8940;SDS011;4505;43.406;23.226;2023-04-01T07:21:09;44.03;;;23.30;;
8940;SDS011;4505;43.406;23.226;2023-04-01T07:23:38;24.23;;;13.87;;
8940;SDS011;4505;43.406;23.226;2023-04-01T07:26:06;31.83;;;14.87;;
8940;SDS011;4505;43.406;23.226;2023-04-01T07:28:36;13.90;;;8.27;;
8940;SDS011;4505;43.406;23.226;2023-04-01T07:31:07;14.87;;;7.83;;
8940;SDS011;4505;43.406;23.226;2023-04-01T07:33:38;12.23;;;6.57;;
8940;SDS011;4505;43.406;23.226;2023-04-01T07:36:06;12.03;;;5.67;;
8940;SDS011;4505;43.406;23.226;2023-04-01T07:38:35;9.27;;;4.67;;
8940;SDS011;4505;43.406;23.226;2023-04-01T07:41:06;12.43;;;5.33;;
8940;SDS011;4505;43.406;23.226;2023-04-01T07:43:39;8.30;;;5.20;;
8940;SDS011;4505;43.406;23.226;2023-04-01T07:46:12;8.90;;;4.83;;
8940;SDS011;4505;43.406;23.226;2023-04-01T07:48:43;11.63;;;4.80;;
8940;SDS011;4505;43.406;23.226;2023-04-01T07:51:14;8.80;;;4.10;;
8940;SDS011;4505;43.406;23.226;2023-04-01T07:53:44;11.93;;;4.60;;
8940;SDS011;4505;43.406;23.226;2023-04-01T07:56:14;10.07;;;5.33;;
8940;SDS011;4505;43.406;23.226;2023-04-01T07:58:47;9.27;;;4.77;;
8940;SDS011;4505;43.406;23.226;2023-04-01T08:01:18;7.97;;;4.53;;
8940;SDS011;4505;43.406;23.226;2023-04-01T08:03:51;9.47;;;5.50;;
8940;SDS011;4505;43.406;23.226;2023-04-01T08:06:19;10.57;;;5.30;;
8940;SDS011;4505;43.406;23.226;2023-04-01T08:08:53;11.83;;;5.73;;
8940;SDS011;4505;43.406;23.226;2023-04-01T08:11:26;10.30;;;5.50;;
8940;SDS011;4505;43.406;23.226;2023-04-01T08:13:59;16.30;;;5.40;;
8940;SDS011;4505;43.406;23.226;2023-04-01T08:16:29;10.83;;;3.93;;
8940;SDS011;4505;43.406;23.226;2023-04-01T08:18:58;9.47;;;4.10;;
8940;SDS011;4505;43.406;23.226;2023-04-01T08:21:28;13.33;;;5.23;;
8940;SDS011;4505;43.406;23.226;2023-04-01T08:24:01;9.33;;;4.63;;
8940;SDS011;4505;43.406;23.226;2023-04-01T08:26:34;9.33;;;4.43;;
8940;SDS011;4505;43.406;23.226;2023-04-01T08:29:04;20.40;;;6.43;;
8940;SDS011;4505;43.406;23.226;2023-04-01T08:31:33;11.03;;;4.80;;
8940;SDS011;4505;43.406;23.226;2023-04-01T08:34:02;13.20;;;6.03;;
8940;SDS011;4505;43.406;23.226;2023-04-01T08:36:31;9.13;;;4.77;;
8940;SDS011;4505;43.406;23.226;2023-04-01T08:38:59;11.27;;;4.57;;
8940;SDS011;4505;43.406;23.226;2023-04-01T08:41:33;11.93;;;4.63;;
8940;SDS011;4505;43.406;23.226;2023-04-01T08:44:13;8.10;;;4.37;;
8940;SDS011;4505;43.406;23.226;2023-04-01T08:49:42;10.90;;;4.23;;
8940;SDS011;4505;43.406;23.226;2023-04-01T08:52:14;9.03;;;5.27;;
8940;SDS011;4505;43.406;23.226;2023-04-01T08:54:56;13.13;;;5.50;;
8940;SDS011;4505;43.406;23.226;2023-04-01T08:57:32;13.43;;;4.80;;
8940;SDS011;4505;43.406;23.226;2023-04-01T09:00:07;10.30;;;5.30;;
8940;SDS011;4505;43.406;23.226;2023-04-01T09:02:49;9.53;;;4.90;;
8940;SDS011;4505;43.406;23.226;2023-04-01T09:08:05;13.23;;;5.47;;
8940;SDS011;4505;43.406;23.226;2023-04-01T09:10:44;13.17;;;6.43;;
8940;SDS011;4505;43.406;23.226;2023-04-01T09:13:15;11.00;;;6.30;;
8940;SDS011;4505;43.406;23.226;2023-04-01T09:16:03;13.23;;;6.07;;
8940;SDS011;4505;43.406;23.226;2023-04-01T09:21:23;12.70;;;6.47;;
8940;SDS011;4505;43.406;23.226;2023-04-01T09:23:55;14.23;;;6.40;;
8940;SDS011;4505;43.406;23.226;2023-04-01T09:26:33;11.50;;;6.50;;
8940;SDS011;4505;43.406;23.226;2023-04-01T09:29:02;14.90;;;5.97;;
8940;SDS011;4505;43.406;23.226;2023-04-01T09:37:00;9.30;;;4.57;;
8940;SDS011;4505;43.406;23.226;2023-04-01T09:39:36;11.57;;;5.27;;
8940;SDS011;4505;43.406;23.226;2023-04-01T09:42:07;13.53;;;5.30;;
8940;SDS011;4505;43.406;23.226;2023-04-01T09:44:35;10.43;;;4.77;;
8940;SDS011;4505;43.406;23.226;2023-04-01T09:47:06;7.23;;;4.90;;
8940;SDS011;4505;43.406;23.226;2023-04-01T09:49:43;9.53;;;4.70;;
8940;SDS011;4505;43.406;23.226;2023-04-01T09:52:19;14.57;;;5.60;;
8940;SDS011;4505;43.406;23.226;2023-04-01T09:54:52;9.97;;;5.40;;
8940;SDS011;4505;43.406;23.226;2023-04-01T09:57:32;17.20;;;5.27;;
8940;SDS011;4505;43.406;23.226;2023-04-01T10:00:10;16.03;;;5.67;;
8940;SDS011;4505;43.406;23.226;2023-04-01T10:08:31;13.00;;;5.67;;
8940;SDS011;4505;43.406;23.226;2023-04-01T10:19:39;18.30;;;6.03;;
8940;SDS011;4505;43.406;23.226;2023-04-01T10:22:17;13.03;;;5.90;;
8940;SDS011;4505;43.406;23.226;2023-04-01T10:25:10;12.77;;;5.13;;
8940;SDS011;4505;43.406;23.226;2023-04-01T10:27:48;12.67;;;5.17;;
8940;SDS011;4505;43.406;23.226;2023-04-01T10:30:20;13.93;;;6.27;;
8940;SDS011;4505;43.406;23.226;2023-04-01T10:38:41;15.30;;;7.83;;
8940;SDS011;4505;43.406;23.226;2023-04-01T10:41:31;15.57;;;7.00;;
8940;SDS011;4505;43.406;23.226;2023-04-01T10:47:16;14.50;;;5.67;;
8940;SDS011;4505;43.406;23.226;2023-04-01T10:52:46;16.80;;;5.93;;
8940;SDS011;4505;43.406;23.226;2023-04-01T10:58:10;14.43;;;6.17;;
8940;SDS011;4505;43.406;23.226;2023-04-01T11:06:12;12.00;;;8.07;;
8940;SDS011;4505;43.406;23.226;2023-04-01T11:11:47;16.63;;;10.07;;
8940;SDS011;4505;43.406;23.226;2023-04-01T11:14:30;15.67;;;9.40;;
8940;SDS011;4505;43.406;23.226;2023-04-01T11:19:51;16.50;;;6.80;;
8940;SDS011;4505;43.406;23.226;2023-04-01T11:22:32;14.57;;;6.40;;
8940;SDS011;4505;43.406;23.226;2023-04-01T11:27:46;18.63;;;7.93;;
8940;SDS011;4505;43.406;23.226;2023-04-01T11:30:18;18.63;;;9.67;;
8940;SDS011;4505;43.406;23.226;2023-04-01T11:32:49;13.73;;;8.67;;
8940;SDS011;4505;43.406;23.226;2023-04-01T11:38:18;17.47;;;7.17;;
8940;SDS011;4505;43.406;23.226;2023-04-01T11:40:47;13.43;;;7.13;;
8940;SDS011;4505;43.406;23.226;2023-04-01T11:43:18;19.40;;;8.33;;
8940;SDS011;4505;43.406;23.226;2023-04-01T11:45:50;15.60;;;8.40;;
8940;SDS011;4505;43.406;23.226;2023-04-01T11:48:22;15.53;;;7.63;;
8940;SDS011;4505;43.406;23.226;2023-04-01T11:51:14;25.20;;;9.07;;
8940;SDS011;4505;43.406;23.226;2023-04-01T11:53:44;12.67;;;7.00;;
8940;SDS011;4505;43.406;23.226;2023-04-01T11:56:21;18.47;;;9.23;;
8940;SDS011;4505;43.406;23.226;2023-04-01T11:58:59;16.27;;;9.33;;
8940;SDS011;4505;43.406;23.226;2023-04-01T12:01:35;23.37;;;9.93;;
8940;SDS011;4505;43.406;23.226;2023-04-01T12:06:50;21.00;;;10.90;;
8940;SDS011;4505;43.406;23.226;2023-04-01T12:09:18;24.80;;;14.00;;
8940;SDS011;4505;43.406;23.226;2023-04-01T12:11:49;25.87;;;14.67;;
8940;SDS011;4505;43.406;23.226;2023-04-01T12:14:19;31.07;;;15.27;;
8940;SDS011;4505;43.406;23.226;2023-04-01T12:16:52;23.07;;;14.83;;
8940;SDS011;4505;43.406;23.226;2023-04-01T12:19:23;30.40;;;20.27;;
8940;SDS011;4505;43.406;23.226;2023-04-01T12:21:55;32.23;;;20.67;;
8940;SDS011;4505;43.406;23.226;2023-04-01T12:24:31;35.03;;;19.43;;
8940;SDS011;4505;43.406;23.226;2023-04-01T12:27:02;30.70;;;16.60;;
8940;SDS011;4505;43.406;23.226;2023-04-01T12:29:45;26.43;;;14.77;;
8940;SDS011;4505;43.406;23.226;2023-04-01T12:32:17;23.27;;;12.27;;
8940;SDS011;4505;43.406;23.226;2023-04-01T12:34:49;29.10;;;16.37;;
8940;SDS011;4505;43.406;23.226;2023-04-01T12:37:26;28.33;;;16.23;;
8940;SDS011;4505;43.406;23.226;2023-04-01T12:40:06;30.97;;;17.97;;
8940;SDS011;4505;43.406;23.226;2023-04-01T12:45:28;29.90;;;12.50;;
8940;SDS011;4505;43.406;23.226;2023-04-01T12:50:54;22.43;;;11.57;;
8940;SDS011;4505;43.406;23.226;2023-04-01T12:53:28;14.77;;;8.37;;
8940;SDS011;4505;43.406;23.226;2023-04-01T12:56:01;14.63;;;9.73;;
8940;SDS011;4505;43.406;23.226;2023-04-01T13:04:05;13.63;;;8.03;;
8940;SDS011;4505;43.406;23.226;2023-04-01T13:06:43;18.33;;;7.43;;
8940;SDS011;4505;43.406;23.226;2023-04-01T13:09:18;13.37;;;7.17;;
8940;SDS011;4505;43.406;23.226;2023-04-01T13:11:51;13.10;;;7.37;;
8940;SDS011;4505;43.406;23.226;2023-04-01T13:17:02;13.50;;;8.07;;
8940;SDS011;4505;43.406;23.226;2023-04-01T13:19:34;7.73;;;5.00;;
8940;SDS011;4505;43.406;23.226;2023-04-01T13:22:07;7.97;;;6.03;;
8940;SDS011;4505;43.406;23.226;2023-04-01T13:24:39;13.63;;;8.60;;
8940;SDS011;4505;43.406;23.226;2023-04-01T13:27:08;10.10;;;5.53;;
8940;SDS011;4505;43.406;23.226;2023-04-01T13:29:38;8.53;;;5.20;;
8940;SDS011;4505;43.406;23.226;2023-04-01T13:32:21;6.90;;;4.93;;
8940;SDS011;4505;43.406;23.226;2023-04-01T13:34:55;9.43;;;5.43;;
8940;SDS011;4505;43.406;23.226;2023-04-01T13:37:30;10.03;;;5.20;;
8940;SDS011;4505;43.406;23.226;2023-04-01T13:40:02;8.67;;;4.30;;
8940;SDS011;4505;43.406;23.226;2023-04-01T13:42:35;7.90;;;4.30;;
8940;SDS011;4505;43.406;23.226;2023-04-01T13:45:08;9.17;;;5.40;;
8940;SDS011;4505;43.406;23.226;2023-04-01T13:47:45;8.57;;;5.00;;
8940;SDS011;4505;43.406;23.226;2023-04-01T13:50:23;9.63;;;4.87;;
8940;SDS011;4505;43.406;23.226;2023-04-01T13:53:12;9.33;;;5.63;;
8940;SDS011;4505;43.406;23.226;2023-04-01T13:55:54;7.63;;;5.00;;
8940;SDS011;4505;43.406;23.226;2023-04-01T13:58:31;8.70;;;5.33;;
8940;SDS011;4505;43.406;23.226;2023-04-01T14:01:04;8.93;;;6.00;;
8940;SDS011;4505;43.406;23.226;2023-04-01T14:06:19;11.40;;;6.40;;
8940;SDS011;4505;43.406;23.226;2023-04-01T14:08:55;9.90;;;5.60;;
8940;SDS011;4505;43.406;23.226;2023-04-01T14:11:25;11.40;;;4.77;;
8940;SDS011;4505;43.406;23.226;2023-04-01T14:13:56;8.97;;;5.73;;
8940;SDS011;4505;43.406;23.226;2023-04-01T14:19:12;8.80;;;5.50;;
8940;SDS011;4505;43.406;23.226;2023-04-01T14:21:46;10.53;;;5.57;;
8940;SDS011;4505;43.406;23.226;2023-04-01T14:24:22;9.73;;;4.83;;
8940;SDS011;4505;43.406;23.226;2023-04-01T14:29:44;11.80;;;6.67;;
8940;SDS011;4505;43.406;23.226;2023-04-01T14:32:14;11.00;;;6.50;;
8940;SDS011;4505;43.406;23.226;2023-04-01T14:34:54;10.47;;;5.97;;
8940;SDS011;4505;43.406;23.226;2023-04-01T14:37:29;10.93;;;5.73;;
8940;SDS011;4505;43.406;23.226;2023-04-01T14:40:14;11.43;;;5.87;;
8940;SDS011;4505;43.406;23.226;2023-04-01T14:42:52;10.67;;;7.53;;
8940;SDS011;4505;43.406;23.226;2023-04-01T14:48:07;14.67;;;6.00;;
8940;SDS011;4505;43.406;23.226;2023-04-01T14:50:41;11.67;;;6.70;;
8940;SDS011;4505;43.406;23.226;2023-04-01T14:53:11;13.80;;;8.43;;
8940;SDS011;4505;43.406;23.226;2023-04-01T14:55:46;15.73;;;9.87;;
8940;SDS011;4505;43.406;23.226;2023-04-01T14:58:15;9.73;;;5.70;;
8940;SDS011;4505;43.406;23.226;2023-04-01T15:00:47;15.90;;;8.97;;
8940;SDS011;4505;43.406;23.226;2023-04-01T15:03:15;4.87;;;4.20;;
8940;SDS011;4505;43.406;23.226;2023-04-01T15:05:45;4.40;;;3.60;;
8940;SDS011;4505;43.406;23.226;2023-04-01T15:08:16;5.13;;;3.43;;
8940;SDS011;4505;43.406;23.226;2023-04-01T15:10:59;2.77;;;2.47;;
8940;SDS011;4505;43.406;23.226;2023-04-01T15:13:35;4.23;;;2.60;;
8940;SDS011;4505;43.406;23.226;2023-04-01T15:16:11;2.40;;;1.70;;
8940;SDS011;4505;43.406;23.226;2023-04-01T15:18:44;1.90;;;1.63;;
8940;SDS011;4505;43.406;23.226;2023-04-01T15:21:13;2.57;;;2.30;;
8940;SDS011;4505;43.406;23.226;2023-04-01T15:23:46;6.70;;;3.03;;
8940;SDS011;4505;43.406;23.226;2023-04-01T15:29:11;10.33;;;5.37;;
8940;SDS011;4505;43.406;23.226;2023-04-01T15:31:44;7.40;;;4.83;;
8940;SDS011;4505;43.406;23.226;2023-04-01T15:34:24;4.83;;;2.83;;
8940;SDS011;4505;43.406;23.226;2023-04-01T15:36:53;4.20;;;3.10;;
8940;SDS011;4505;43.406;23.226;2023-04-01T15:39:24;3.67;;;2.77;;
8940;SDS011;4505;43.406;23.226;2023-04-01T15:42:01;5.00;;;3.77;;
8940;SDS011;4505;43.406;23.226;2023-04-01T15:44:40;4.17;;;3.27;;
8940;SDS011;4505;43.406;23.226;2023-04-01T15:47:16;4.77;;;3.67;;
8940;SDS011;4505;43.406;23.226;2023-04-01T15:49:52;9.23;;;5.73;;
8940;SDS011;4505;43.406;23.226;2023-04-01T15:52:21;5.53;;;4.10;;
8940;SDS011;4505;43.406;23.226;2023-04-01T15:54:53;4.87;;;4.00;;
8940;SDS011;4505;43.406;23.226;2023-04-01T15:57:25;4.57;;;3.50;;
8940;SDS011;4505;43.406;23.226;2023-04-01T16:02:45;12.43;;;9.13;;
8940;SDS011;4505;43.406;23.226;2023-04-01T16:05:25;8.07;;;5.00;;
8940;SDS011;4505;43.406;23.226;2023-04-01T16:07:55;6.27;;;4.53;;
8940;SDS011;4505;43.406;23.226;2023-04-01T16:10:31;7.90;;;5.87;;
8940;SDS011;4505;43.406;23.226;2023-04-01T16:13:03;6.50;;;4.60;;
8940;SDS011;4505;43.406;23.226;2023-04-01T16:15:37;8.63;;;5.70;;
8940;SDS011;4505;43.406;23.226;2023-04-01T16:18:12;6.50;;;5.50;;
8940;SDS011;4505;43.406;23.226;2023-04-01T16:20:43;8.80;;;6.30;;
8940;SDS011;4505;43.406;23.226;2023-04-01T16:23:11;4.83;;;4.40;;
8940;SDS011;4505;43.406;23.226;2023-04-01T16:25:40;7.23;;;5.77;;
8940;SDS011;4505;43.406;23.226;2023-04-01T16:28:12;6.73;;;5.67;;
8940;SDS011;4505;43.406;23.226;2023-04-01T16:30:43;7.80;;;5.93;;
8940;SDS011;4505;43.406;23.226;2023-04-01T16:33:13;6.20;;;5.60;;
8940;SDS011;4505;43.406;23.226;2023-04-01T16:35:41;10.43;;;7.37;;
8940;SDS011;4505;43.406;23.226;2023-04-01T16:38:12;12.07;;;8.50;;
8940;SDS011;4505;43.406;23.226;2023-04-01T16:40:42;14.60;;;11.00;;
8940;SDS011;4505;43.406;23.226;2023-04-01T16:43:16;11.77;;;8.23;;
8940;SDS011;4505;43.406;23.226;2023-04-01T16:45:52;5.77;;;4.73;;
8940;SDS011;4505;43.406;23.226;2023-04-01T16:48:21;4.30;;;3.60;;
8940;SDS011;4505;43.406;23.226;2023-04-01T16:50:52;2.87;;;2.67;;
8940;SDS011;4505;43.406;23.226;2023-04-01T16:53:21;2.57;;;2.37;;
8940;SDS011;4505;43.406;23.226;2023-04-01T16:55:52;3.20;;;2.90;;
8940;SDS011;4505;43.406;23.226;2023-04-01T16:58:26;2.83;;;2.53;;
8940;SDS011;4505;43.406;23.226;2023-04-01T17:00:55;2.27;;;2.07;;